sensor_id;sensor_type;location;lat;lon;timestamp;P1;durP1;ratioP1;P2;durP2;ratioP2
23228;SDS011;11783;50.350;6.576;2023-03-03T00:00:42;24.83;;;14.00;;
23228;SDS011;11783;50.350;6.576;2023-03-03T00:03:08;24.15;;;13.40;;
23228;SDS011;11783;50.350;6.576;2023-03-03T00:05:35;22.58;;;14.23;;
23228;SDS011;11783;50.350;6.576;2023-03-03T00:08:01;27.88;;;15.18;;
23228;SDS011;11783;50.350;6.576;2023-03-03T00:10:27;25.52;;;13.93;;
23228;SDS011;11783;50.350;6.576;2023-03-03T00:12:52;25.15;;;15.32;;
23228;SDS011;11783;50.350;6.576;2023-03-03T00:15:19;27.20;;;14.45;;
23228;SDS011;11783;50.350;6.576;2023-03-03T00:17:46;28.42;;;15.13;;
23228;SDS011;11783;50.350;6.576;2023-03-03T00:20:26;25.58;;;13.50;;
23228;SDS011;11783;50.350;6.576;2023-03-03T00:23:12;26.42;;;14.52;;
23228;SDS011;11783;50.350;6.576;2023-03-03T00:33:40;28.00;;;14.95;;
23228;SDS011;11783;50.350;6.576;2023-03-03T00:42:00;24.52;;;14.38;;
23228;SDS011;11783;50.350;6.576;2023-03-03T00:44:39;27.60;;;15.20;;
23228;SDS011;11783;50.350;6.576;2023-03-03T00:52:39;28.08;;;16.00;;
23228;SDS011;11783;50.350;6.576;2023-03-03T00:55:09;26.15;;;14.40;;
23228;SDS011;11783;50.350;6.576;2023-03-03T00:57:35;27.02;;;14.93;;
23228;SDS011;11783;50.350;6.576;2023-03-03T01:00:01;26.58;;;14.45;;
23228;SDS011;11783;50.350;6.576;2023-03-03T01:02:26;22.60;;;12.57;;
23228;SDS011;11783;50.350;6.576;2023-03-03T01:04:52;23.98;;;13.50;;
23228;SDS011;11783;50.350;6.576;2023-03-03T01:07:20;23.38;;;12.52;;
23228;SDS011;11783;50.350;6.576;2023-03-03T01:09:46;24.48;;;13.75;;
23228;SDS011;11783;50.350;6.576;2023-03-03T01:12:11;25.15;;;13.88;;
23228;SDS011;11783;50.350;6.576;2023-03-03T01:14:37;24.17;;;14.10;;
23228;SDS011;11783;50.350;6.576;2023-03-03T01:17:03;23.02;;;13.35;;
23228;SDS011;11783;50.350;6.576;2023-03-03T01:19:29;25.25;;;13.55;;
23228;SDS011;11783;50.350;6.576;2023-03-03T01:21:54;24.50;;;13.35;;
23228;SDS011;11783;50.350;6.576;2023-03-03T01:24:20;24.55;;;13.73;;
23228;SDS011;11783;50.350;6.576;2023-03-03T01:26:45;23.77;;;13.60;;
23228;SDS011;11783;50.350;6.576;2023-03-03T01:29:11;25.38;;;14.52;;
23228;SDS011;11783;50.350;6.576;2023-03-03T01:31:37;29.20;;;16.42;;
23228;SDS011;11783;50.350;6.576;2023-03-03T01:34:03;26.08;;;14.77;;
23228;SDS011;11783;50.350;6.576;2023-03-03T01:36:28;25.92;;;13.68;;
23228;SDS011;11783;50.350;6.576;2023-03-03T01:38:54;25.63;;;14.35;;
23228;SDS011;11783;50.350;6.576;2023-03-03T01:41:19;24.65;;;13.93;;
23228;SDS011;11783;50.350;6.576;2023-03-03T01:43:46;26.20;;;14.40;;
23228;SDS011;11783;50.350;6.576;2023-03-03T01:48:47;28.73;;;14.68;;
23228;SDS011;11783;50.350;6.576;2023-03-03T01:53:47;26.48;;;14.38;;
23228;SDS011;11783;50.350;6.576;2023-03-03T01:56:15;27.45;;;15.20;;
23228;SDS011;11783;50.350;6.576;2023-03-03T01:59:00;27.83;;;15.75;;
23228;SDS011;11783;50.350;6.576;2023-03-03T02:01:31;25.73;;;15.40;;
23228;SDS011;11783;50.350;6.576;2023-03-03T02:03:58;26.60;;;14.40;;
23228;SDS011;11783;50.350;6.576;2023-03-03T02:06:27;27.88;;;15.95;;
23228;SDS011;11783;50.350;6.576;2023-03-03T02:11:44;26.70;;;15.15;;
23228;SDS011;11783;50.350;6.576;2023-03-03T02:14:13;27.08;;;15.93;;
23228;SDS011;11783;50.350;6.576;2023-03-03T02:16:38;28.80;;;15.90;;
23228;SDS011;11783;50.350;6.576;2023-03-03T02:19:05;32.47;;;15.55;;
23228;SDS011;11783;50.350;6.576;2023-03-03T02:21:37;25.15;;;14.35;;
23228;SDS011;11783;50.350;6.576;2023-03-03T02:26:47;28.33;;;14.73;;
23228;SDS011;11783;50.350;6.576;2023-03-03T02:29:12;27.80;;;16.02;;
23228;SDS011;11783;50.350;6.576;2023-03-03T02:31:38;28.17;;;15.82;;
23228;SDS011;11783;50.350;6.576;2023-03-03T02:34:03;29.45;;;16.05;;
23228;SDS011;11783;50.350;6.576;2023-03-03T02:36:31;26.73;;;15.48;;
23228;SDS011;11783;50.350;6.576;2023-03-03T02:39:02;28.65;;;15.68;;
23228;SDS011;11783;50.350;6.576;2023-03-03T02:41:49;27.23;;;15.40;;
23228;SDS011;11783;50.350;6.576;2023-03-03T02:44:20;32.33;;;15.80;;
23228;SDS011;11783;50.350;6.576;2023-03-03T02:46:48;31.73;;;15.70;;
23228;SDS011;11783;50.350;6.576;2023-03-03T02:49:17;28.48;;;15.93;;
23228;SDS011;11783;50.350;6.576;2023-03-03T02:51:45;28.00;;;15.05;;
23228;SDS011;11783;50.350;6.576;2023-03-03T02:54:11;30.85;;;16.08;;
23228;SDS011;11783;50.350;6.576;2023-03-03T02:56:38;32.50;;;15.80;;
23228;SDS011;11783;50.350;6.576;2023-03-03T02:59:04;28.77;;;16.23;;
23228;SDS011;11783;50.350;6.576;2023-03-03T03:01:30;30.38;;;16.80;;
23228;SDS011;11783;50.350;6.576;2023-03-03T03:04:00;33.25;;;16.77;;
23228;SDS011;11783;50.350;6.576;2023-03-03T03:06:29;28.77;;;16.05;;
23228;SDS011;11783;50.350;6.576;2023-03-03T03:08:54;31.50;;;16.27;;
23228;SDS011;11783;50.350;6.576;2023-03-03T03:11:19;29.05;;;15.98;;
23228;SDS011;11783;50.350;6.576;2023-03-03T03:13:45;27.95;;;15.63;;
23228;SDS011;11783;50.350;6.576;2023-03-03T03:16:10;32.45;;;17.02;;
23228;SDS011;11783;50.350;6.576;2023-03-03T03:18:35;31.88;;;16.70;;
23228;SDS011;11783;50.350;6.576;2023-03-03T03:21:04;32.00;;;16.60;;
23228;SDS011;11783;50.350;6.576;2023-03-03T03:23:31;30.58;;;16.75;;
23228;SDS011;11783;50.350;6.576;2023-03-03T03:25:56;36.75;;;17.95;;
23228;SDS011;11783;50.350;6.576;2023-03-03T03:28:21;34.78;;;17.77;;
23228;SDS011;11783;50.350;6.576;2023-03-03T03:30:47;35.15;;;17.63;;
23228;SDS011;11783;50.350;6.576;2023-03-03T03:33:15;38.35;;;17.90;;
23228;SDS011;11783;50.350;6.576;2023-03-03T03:35:40;37.65;;;18.95;;
23228;SDS011;11783;50.350;6.576;2023-03-03T03:38:09;35.95;;;18.38;;
23228;SDS011;11783;50.350;6.576;2023-03-03T03:40:35;45.55;;;20.00;;
23228;SDS011;11783;50.350;6.576;2023-03-03T03:43:00;42.63;;;19.25;;
23228;SDS011;11783;50.350;6.576;2023-03-03T03:45:25;42.78;;;20.25;;
23228;SDS011;11783;50.350;6.576;2023-03-03T03:47:51;44.13;;;21.13;;
23228;SDS011;11783;50.350;6.576;2023-03-03T03:50:16;44.75;;;20.83;;
23228;SDS011;11783;50.350;6.576;2023-03-03T03:52:41;46.78;;;20.70;;
23228;SDS011;11783;50.350;6.576;2023-03-03T03:55:07;43.30;;;20.52;;
23228;SDS011;11783;50.350;6.576;2023-03-03T03:57:33;45.67;;;21.48;;
23228;SDS011;11783;50.350;6.576;2023-03-03T03:59:59;41.30;;;20.33;;
23228;SDS011;11783;50.350;6.576;2023-03-03T04:02:24;40.85;;;19.40;;
23228;SDS011;11783;50.350;6.576;2023-03-03T04:04:49;45.75;;;21.85;;
23228;SDS011;11783;50.350;6.576;2023-03-03T04:07:15;49.67;;;22.67;;
23228;SDS011;11783;50.350;6.576;2023-03-03T04:09:40;47.45;;;21.88;;
23228;SDS011;11783;50.350;6.576;2023-03-03T04:12:05;43.75;;;21.80;;
23228;SDS011;11783;50.350;6.576;2023-03-03T04:14:31;47.38;;;21.67;;
23228;SDS011;11783;50.350;6.576;2023-03-03T04:16:56;42.30;;;21.20;;
23228;SDS011;11783;50.350;6.576;2023-03-03T04:19:22;44.95;;;20.40;;
23228;SDS011;11783;50.350;6.576;2023-03-03T04:21:47;46.95;;;22.92;;
23228;SDS011;11783;50.350;6.576;2023-03-03T04:24:12;44.67;;;22.38;;
23228;SDS011;11783;50.350;6.576;2023-03-03T04:26:38;49.28;;;22.88;;
23228;SDS011;11783;50.350;6.576;2023-03-03T04:29:03;50.78;;;24.02;;
23228;SDS011;11783;50.350;6.576;2023-03-03T04:31:29;52.63;;;23.77;;
23228;SDS011;11783;50.350;6.576;2023-03-03T04:33:54;48.00;;;22.55;;
23228;SDS011;11783;50.350;6.576;2023-03-03T04:36:20;46.75;;;22.23;;
23228;SDS011;11783;50.350;6.576;2023-03-03T04:38:45;46.33;;;22.15;;
23228;SDS011;11783;50.350;6.576;2023-03-03T04:41:11;48.25;;;22.75;;
23228;SDS011;11783;50.350;6.576;2023-03-03T04:43:36;50.30;;;24.02;;
23228;SDS011;11783;50.350;6.576;2023-03-03T04:46:02;47.22;;;22.15;;
23228;SDS011;11783;50.350;6.576;2023-03-03T04:48:28;50.30;;;22.38;;
23228;SDS011;11783;50.350;6.576;2023-03-03T04:50:53;51.25;;;21.73;;
23228;SDS011;11783;50.350;6.576;2023-03-03T04:53:18;51.45;;;23.40;;
23228;SDS011;11783;50.350;6.576;2023-03-03T04:55:44;42.80;;;20.50;;
23228;SDS011;11783;50.350;6.576;2023-03-03T04:58:09;48.65;;;22.95;;
23228;SDS011;11783;50.350;6.576;2023-03-03T05:00:35;46.55;;;22.50;;
23228;SDS011;11783;50.350;6.576;2023-03-03T05:03:00;47.95;;;22.60;;
23228;SDS011;11783;50.350;6.576;2023-03-03T05:05:26;47.90;;;22.88;;
23228;SDS011;11783;50.350;6.576;2023-03-03T05:07:52;48.72;;;22.85;;
23228;SDS011;11783;50.350;6.576;2023-03-03T05:10:17;48.78;;;22.48;;
23228;SDS011;11783;50.350;6.576;2023-03-03T05:12:42;44.20;;;20.92;;
23228;SDS011;11783;50.350;6.576;2023-03-03T05:15:08;43.30;;;21.17;;
23228;SDS011;11783;50.350;6.576;2023-03-03T05:17:34;37.58;;;18.55;;
23228;SDS011;11783;50.350;6.576;2023-03-03T05:20:00;37.33;;;19.25;;
23228;SDS011;11783;50.350;6.576;2023-03-03T05:22:25;44.92;;;21.67;;
23228;SDS011;11783;50.350;6.576;2023-03-03T05:24:51;44.33;;;21.85;;
23228;SDS011;11783;50.350;6.576;2023-03-03T05:27:17;44.95;;;20.75;;
23228;SDS011;11783;50.350;6.576;2023-03-03T05:29:43;45.00;;;21.98;;
23228;SDS011;11783;50.350;6.576;2023-03-03T05:32:09;48.38;;;21.92;;
23228;SDS011;11783;50.350;6.576;2023-03-03T05:34:34;45.25;;;21.77;;
23228;SDS011;11783;50.350;6.576;2023-03-03T05:37:00;45.20;;;22.25;;
23228;SDS011;11783;50.350;6.576;2023-03-03T05:39:25;45.20;;;21.08;;
23228;SDS011;11783;50.350;6.576;2023-03-03T05:41:50;45.63;;;21.88;;
23228;SDS011;11783;50.350;6.576;2023-03-03T05:44:16;47.55;;;22.67;;
23228;SDS011;11783;50.350;6.576;2023-03-03T05:46:41;43.58;;;21.20;;
23228;SDS011;11783;50.350;6.576;2023-03-03T05:49:07;42.28;;;20.75;;
23228;SDS011;11783;50.350;6.576;2023-03-03T05:51:32;45.70;;;21.35;;
23228;SDS011;11783;50.350;6.576;2023-03-03T05:53:58;43.90;;;22.00;;
23228;SDS011;11783;50.350;6.576;2023-03-03T05:56:23;44.42;;;21.92;;
23228;SDS011;11783;50.350;6.576;2023-03-03T05:58:49;46.28;;;22.50;;
23228;SDS011;11783;50.350;6.576;2023-03-03T06:01:14;43.40;;;22.75;;
23228;SDS011;11783;50.350;6.576;2023-03-03T06:03:39;43.47;;;22.42;;
23228;SDS011;11783;50.350;6.576;2023-03-03T06:06:05;45.30;;;22.08;;
23228;SDS011;11783;50.350;6.576;2023-03-03T06:08:30;43.00;;;22.30;;
23228;SDS011;11783;50.350;6.576;2023-03-03T06:10:56;49.72;;;23.67;;
23228;SDS011;11783;50.350;6.576;2023-03-03T06:13:22;48.25;;;24.05;;
23228;SDS011;11783;50.350;6.576;2023-03-03T06:15:47;48.38;;;24.30;;
23228;SDS011;11783;50.350;6.576;2023-03-03T06:18:13;47.80;;;22.10;;
23228;SDS011;11783;50.350;6.576;2023-03-03T06:20:38;45.92;;;23.23;;
23228;SDS011;11783;50.350;6.576;2023-03-03T06:23:03;47.08;;;23.98;;
23228;SDS011;11783;50.350;6.576;2023-03-03T06:25:29;47.55;;;23.25;;
23228;SDS011;11783;50.350;6.576;2023-03-03T06:27:55;47.25;;;22.92;;
23228;SDS011;11783;50.350;6.576;2023-03-03T06:30:20;48.33;;;22.65;;
23228;SDS011;11783;50.350;6.576;2023-03-03T06:32:45;45.00;;;23.00;;
23228;SDS011;11783;50.350;6.576;2023-03-03T06:35:11;44.95;;;23.23;;
23228;SDS011;11783;50.350;6.576;2023-03-03T06:37:36;45.53;;;22.50;;
23228;SDS011;11783;50.350;6.576;2023-03-03T06:40:02;46.88;;;23.55;;
23228;SDS011;11783;50.350;6.576;2023-03-03T06:42:29;48.65;;;21.95;;
23228;SDS011;11783;50.350;6.576;2023-03-03T06:44:54;45.33;;;22.15;;
23228;SDS011;11783;50.350;6.576;2023-03-03T06:47:19;45.85;;;21.75;;
23228;SDS011;11783;50.350;6.576;2023-03-03T06:49:45;44.03;;;23.23;;
23228;SDS011;11783;50.350;6.576;2023-03-03T06:52:11;45.63;;;22.08;;
23228;SDS011;11783;50.350;6.576;2023-03-03T06:54:39;41.55;;;21.58;;
23228;SDS011;11783;50.350;6.576;2023-03-03T06:57:20;44.97;;;22.38;;
23228;SDS011;11783;50.350;6.576;2023-03-03T06:59:51;45.58;;;22.85;;
23228;SDS011;11783;50.350;6.576;2023-03-03T07:02:17;45.13;;;22.23;;
23228;SDS011;11783;50.350;6.576;2023-03-03T07:04:43;48.20;;;23.42;;
23228;SDS011;11783;50.350;6.576;2023-03-03T07:07:18;50.53;;;23.90;;
23228;SDS011;11783;50.350;6.576;2023-03-03T07:09:46;48.72;;;24.27;;
23228;SDS011;11783;50.350;6.576;2023-03-03T07:12:23;49.70;;;23.90;;
23228;SDS011;11783;50.350;6.576;2023-03-03T07:17:45;42.97;;;21.52;;
23228;SDS011;11783;50.350;6.576;2023-03-03T07:20:18;46.58;;;22.73;;
23228;SDS011;11783;50.350;6.576;2023-03-03T07:22:48;46.42;;;22.17;;
23228;SDS011;11783;50.350;6.576;2023-03-03T07:25:18;47.25;;;23.10;;
23228;SDS011;11783;50.350;6.576;2023-03-03T07:27:48;44.90;;;21.60;;
23228;SDS011;11783;50.350;6.576;2023-03-03T07:30:27;49.08;;;24.02;;
23228;SDS011;11783;50.350;6.576;2023-03-03T07:32:54;49.50;;;23.20;;
23228;SDS011;11783;50.350;6.576;2023-03-03T07:37:55;49.50;;;22.52;;
23228;SDS011;11783;50.350;6.576;2023-03-03T07:48:36;51.65;;;24.17;;
23228;SDS011;11783;50.350;6.576;2023-03-03T07:51:09;51.00;;;24.08;;
23228;SDS011;11783;50.350;6.576;2023-03-03T07:53:39;47.65;;;23.85;;
23228;SDS011;11783;50.350;6.576;2023-03-03T07:58:54;48.95;;;24.27;;
23228;SDS011;11783;50.350;6.576;2023-03-03T08:01:40;48.78;;;23.15;;
23228;SDS011;11783;50.350;6.576;2023-03-03T08:04:08;49.95;;;23.35;;
23228;SDS011;11783;50.350;6.576;2023-03-03T08:06:44;52.38;;;24.90;;
23228;SDS011;11783;50.350;6.576;2023-03-03T08:09:20;52.58;;;23.73;;
23228;SDS011;11783;50.350;6.576;2023-03-03T08:14:35;55.17;;;25.17;;
23228;SDS011;11783;50.350;6.576;2023-03-03T08:17:06;56.63;;;25.33;;
23228;SDS011;11783;50.350;6.576;2023-03-03T08:19:38;58.20;;;26.35;;
23228;SDS011;11783;50.350;6.576;2023-03-03T08:22:14;61.28;;;26.70;;
23228;SDS011;11783;50.350;6.576;2023-03-03T08:24:41;65.28;;;27.33;;
23228;SDS011;11783;50.350;6.576;2023-03-03T08:27:06;67.68;;;29.10;;
23228;SDS011;11783;50.350;6.576;2023-03-03T08:29:32;58.90;;;27.80;;
23228;SDS011;11783;50.350;6.576;2023-03-03T08:31:57;66.68;;;30.23;;
23228;SDS011;11783;50.350;6.576;2023-03-03T08:34:22;57.70;;;26.25;;
23228;SDS011;11783;50.350;6.576;2023-03-03T08:36:48;63.55;;;26.77;;
23228;SDS011;11783;50.350;6.576;2023-03-03T08:39:14;59.80;;;26.80;;
23228;SDS011;11783;50.350;6.576;2023-03-03T08:41:39;64.25;;;28.50;;
23228;SDS011;11783;50.350;6.576;2023-03-03T08:44:07;63.92;;;28.25;;
23228;SDS011;11783;50.350;6.576;2023-03-03T08:46:33;62.95;;;27.95;;
23228;SDS011;11783;50.350;6.576;2023-03-03T08:48:58;57.92;;;26.95;;
23228;SDS011;11783;50.350;6.576;2023-03-03T08:51:24;60.42;;;27.05;;
23228;SDS011;11783;50.350;6.576;2023-03-03T08:53:53;60.80;;;27.15;;
23228;SDS011;11783;50.350;6.576;2023-03-03T08:56:19;63.47;;;26.02;;
23228;SDS011;11783;50.350;6.576;2023-03-03T08:58:45;59.20;;;25.67;;
23228;SDS011;11783;50.350;6.576;2023-03-03T09:01:12;56.03;;;25.50;;
23228;SDS011;11783;50.350;6.576;2023-03-03T09:03:39;52.28;;;25.38;;
23228;SDS011;11783;50.350;6.576;2023-03-03T09:06:05;53.63;;;24.13;;
23228;SDS011;11783;50.350;6.576;2023-03-03T09:08:30;54.90;;;24.58;;
23228;SDS011;11783;50.350;6.576;2023-03-03T09:10:56;66.43;;;28.67;;
23228;SDS011;11783;50.350;6.576;2023-03-03T09:13:21;60.53;;;26.90;;
23228;SDS011;11783;50.350;6.576;2023-03-03T09:15:47;62.55;;;27.25;;
23228;SDS011;11783;50.350;6.576;2023-03-03T09:18:21;62.03;;;26.85;;
23228;SDS011;11783;50.350;6.576;2023-03-03T09:20:53;56.28;;;25.77;;
23228;SDS011;11783;50.350;6.576;2023-03-03T09:23:27;59.22;;;26.00;;
23228;SDS011;11783;50.350;6.576;2023-03-03T09:26:21;63.83;;;26.85;;
23228;SDS011;11783;50.350;6.576;2023-03-03T09:28:46;60.05;;;26.02;;
23228;SDS011;11783;50.350;6.576;2023-03-03T09:31:35;64.43;;;27.08;;
23228;SDS011;11783;50.350;6.576;2023-03-03T09:36:40;62.20;;;25.83;;
23228;SDS011;11783;50.350;6.576;2023-03-03T09:39:14;63.63;;;27.48;;
23228;SDS011;11783;50.350;6.576;2023-03-03T10:09:41;57.63;;;25.27;;
23228;SDS011;11783;50.350;6.576;2023-03-03T10:12:27;56.65;;;25.25;;
23228;SDS011;11783;50.350;6.576;2023-03-03T10:15:03;55.38;;;24.92;;
23228;SDS011;11783;50.350;6.576;2023-03-03T10:22:48;58.75;;;25.70;;
23228;SDS011;11783;50.350;6.576;2023-03-03T10:30:41;56.78;;;25.40;;
23228;SDS011;11783;50.350;6.576;2023-03-03T10:36:10;59.97;;;24.60;;
23228;SDS011;11783;50.350;6.576;2023-03-03T10:41:57;65.40;;;27.80;;
23228;SDS011;11783;50.350;6.576;2023-03-03T10:50:45;62.35;;;27.65;;
23228;SDS011;11783;50.350;6.576;2023-03-03T11:01:57;64.00;;;27.23;;
23228;SDS011;11783;50.350;6.576;2023-03-03T11:10:07;64.80;;;27.25;;
23228;SDS011;11783;50.350;6.576;2023-03-03T11:12:52;63.47;;;27.77;;
23228;SDS011;11783;50.350;6.576;2023-03-03T11:20:45;61.55;;;25.80;;
23228;SDS011;11783;50.350;6.576;2023-03-03T11:26:07;64.82;;;27.13;;
23228;SDS011;11783;50.350;6.576;2023-03-03T11:36:38;63.20;;;26.77;;
23228;SDS011;11783;50.350;6.576;2023-03-03T11:39:15;70.03;;;28.08;;
23228;SDS011;11783;50.350;6.576;2023-03-03T11:41:52;68.10;;;27.80;;
23228;SDS011;11783;50.350;6.576;2023-03-03T11:44:23;71.18;;;28.92;;
23228;SDS011;11783;50.350;6.576;2023-03-03T11:49:55;68.13;;;27.50;;
23228;SDS011;11783;50.350;6.576;2023-03-03T11:58:07;67.38;;;27.88;;
23228;SDS011;11783;50.350;6.576;2023-03-03T12:00:28;65.93;;;26.92;;
23228;SDS011;11783;50.350;6.576;2023-03-03T12:03:15;67.10;;;28.02;;
23228;SDS011;11783;50.350;6.576;2023-03-03T12:05:56;63.38;;;25.67;;
23228;SDS011;11783;50.350;6.576;2023-03-03T12:31:05;63.03;;;26.40;;
23228;SDS011;11783;50.350;6.576;2023-03-03T12:33:12;65.35;;;27.48;;
23228;SDS011;11783;50.350;6.576;2023-03-03T12:47:00;66.15;;;27.08;;
23228;SDS011;11783;50.350;6.576;2023-03-03T12:49:42;61.03;;;25.83;;
23228;SDS011;11783;50.350;6.576;2023-03-03T12:55:15;65.72;;;27.67;;
23228;SDS011;11783;50.350;6.576;2023-03-03T12:58:08;68.72;;;28.27;;
23228;SDS011;11783;50.350;6.576;2023-03-03T13:06:29;69.85;;;28.38;;
23228;SDS011;11783;50.350;6.576;2023-03-03T13:16:41;63.05;;;28.05;;
23228;SDS011;11783;50.350;6.576;2023-03-03T13:19:15;63.20;;;27.48;;
23228;SDS011;11783;50.350;6.576;2023-03-03T13:21:47;65.68;;;29.55;;
23228;SDS011;11783;50.350;6.576;2023-03-03T13:27:07;70.60;;;30.23;;
23228;SDS011;11783;50.350;6.576;2023-03-03T13:37:37;66.35;;;28.55;;
23228;SDS011;11783;50.350;6.576;2023-03-03T13:57:17;71.70;;;31.10;;
23228;SDS011;11783;50.350;6.576;2023-03-03T14:05:15;72.03;;;33.28;;
23228;SDS011;11783;50.350;6.576;2023-03-03T14:12:59;68.68;;;31.17;;
23228;SDS011;11783;50.350;6.576;2023-03-03T14:15:33;65.93;;;31.70;;
23228;SDS011;11783;50.350;6.576;2023-03-03T14:20:55;53.65;;;24.25;;
23228;SDS011;11783;50.350;6.576;2023-03-03T14:23:30;68.00;;;30.20;;
23228;SDS011;11783;50.350;6.576;2023-03-03T14:28:29;71.05;;;32.58;;
23228;SDS011;11783;50.350;6.576;2023-03-03T14:33:45;67.05;;;31.38;;
23228;SDS011;11783;50.350;6.576;2023-03-03T14:36:32;60.72;;;28.45;;
23228;SDS011;11783;50.350;6.576;2023-03-03T14:41:58;57.70;;;26.10;;
23228;SDS011;11783;50.350;6.576;2023-03-03T14:49:36;59.05;;;27.17;;
23228;SDS011;11783;50.350;6.576;2023-03-03T14:54:37;61.83;;;27.85;;
23228;SDS011;11783;50.350;6.576;2023-03-03T14:59:37;59.72;;;27.60;;
23228;SDS011;11783;50.350;6.576;2023-03-03T15:04:46;59.25;;;27.77;;
23228;SDS011;11783;50.350;6.576;2023-03-03T15:09:50;67.25;;;29.50;;
23228;SDS011;11783;50.350;6.576;2023-03-03T15:12:17;65.20;;;30.27;;
23228;SDS011;11783;50.350;6.576;2023-03-03T15:14:46;65.60;;;31.55;;
23228;SDS011;11783;50.350;6.576;2023-03-03T15:17:28;67.95;;;30.85;;
23228;SDS011;11783;50.350;6.576;2023-03-03T15:31:19;74.32;;;33.28;;
23228;SDS011;11783;50.350;6.576;2023-03-03T15:44:13;77.00;;;33.30;;
23228;SDS011;11783;50.350;6.576;2023-03-03T15:46:52;76.22;;;33.60;;
23228;SDS011;11783;50.350;6.576;2023-03-03T15:55:11;73.35;;;33.25;;
23228;SDS011;11783;50.350;6.576;2023-03-03T16:03:30;81.38;;;35.72;;
23228;SDS011;11783;50.350;6.576;2023-03-03T16:06:10;85.00;;;36.72;;
23228;SDS011;11783;50.350;6.576;2023-03-03T16:14:06;87.32;;;39.60;;
23228;SDS011;11783;50.350;6.576;2023-03-03T16:27:51;83.30;;;36.58;;
23228;SDS011;11783;50.350;6.576;2023-03-03T16:35:53;88.93;;;38.53;;
23228;SDS011;11783;50.350;6.576;2023-03-03T16:38:28;93.00;;;40.20;;
23228;SDS011;11783;50.350;6.576;2023-03-03T16:41:01;89.15;;;37.75;;
23228;SDS011;11783;50.350;6.576;2023-03-03T16:54:15;68.78;;;31.92;;
23228;SDS011;11783;50.350;6.576;2023-03-03T16:57:10;81.93;;;37.78;;
23228;SDS011;11783;50.350;6.576;2023-03-03T17:05:05;85.78;;;36.67;;
23228;SDS011;11783;50.350;6.576;2023-03-03T17:10:32;83.50;;;35.30;;
23228;SDS011;11783;50.350;6.576;2023-03-03T17:18:51;90.32;;;38.83;;
23228;SDS011;11783;50.350;6.576;2023-03-03T17:24:12;82.53;;;35.97;;
23228;SDS011;11783;50.350;6.576;2023-03-03T17:26:54;88.22;;;36.45;;
23228;SDS011;11783;50.350;6.576;2023-03-03T17:37:42;86.75;;;36.00;;
23228;SDS011;11783;50.350;6.576;2023-03-03T17:45:48;87.65;;;36.95;;
23228;SDS011;11783;50.350;6.576;2023-03-03T17:51:27;99.72;;;39.97;;
23228;SDS011;11783;50.350;6.576;2023-03-03T17:54:13;92.03;;;37.38;;
23228;SDS011;11783;50.350;6.576;2023-03-03T17:57:55;87.72;;;36.92;;
23228;SDS011;11783;50.350;6.576;2023-03-03T18:05:17;76.13;;;33.00;;
23228;SDS011;11783;50.350;6.576;2023-03-03T18:08:17;82.38;;;32.17;;
23228;SDS011;11783;50.350;6.576;2023-03-03T18:11:13;81.15;;;33.97;;
23228;SDS011;11783;50.350;6.576;2023-03-03T18:22:15;88.75;;;35.35;;
23228;SDS011;11783;50.350;6.576;2023-03-03T18:38:27;86.80;;;34.65;;
23228;SDS011;11783;50.350;6.576;2023-03-03T18:40:59;87.20;;;34.85;;
23228;SDS011;11783;50.350;6.576;2023-03-03T18:43:57;92.32;;;35.08;;
23228;SDS011;11783;50.350;6.576;2023-03-03T18:48:49;86.32;;;35.15;;
23228;SDS011;11783;50.350;6.576;2023-03-03T18:59:09;84.45;;;33.58;;
23228;SDS011;11783;50.350;6.576;2023-03-03T19:01:39;87.13;;;35.42;;
23228;SDS011;11783;50.350;6.576;2023-03-03T19:04:14;93.10;;;37.70;;
23228;SDS011;11783;50.350;6.576;2023-03-03T19:09:09;86.72;;;35.28;;
23228;SDS011;11783;50.350;6.576;2023-03-03T19:14:19;90.25;;;37.13;;
23228;SDS011;11783;50.350;6.576;2023-03-03T19:16:55;90.55;;;36.25;;
23228;SDS011;11783;50.350;6.576;2023-03-03T19:19:30;93.25;;;37.53;;
23228;SDS011;11783;50.350;6.576;2023-03-03T19:30:41;98.85;;;39.42;;
23228;SDS011;11783;50.350;6.576;2023-03-03T19:33:34;111.05;;;39.92;;
23228;SDS011;11783;50.350;6.576;2023-03-03T19:36:13;107.15;;;40.30;;
23228;SDS011;11783;50.350;6.576;2023-03-03T19:47:06;103.13;;;37.97;;
23228;SDS011;11783;50.350;6.576;2023-03-03T20:23:08;99.80;;;35.85;;
23228;SDS011;11783;50.350;6.576;2023-03-03T20:36:48;100.30;;;36.75;;
23228;SDS011;11783;50.350;6.576;2023-03-03T20:51:04;100.97;;;35.75;;
23228;SDS011;11783;50.350;6.576;2023-03-03T20:56:38;100.97;;;37.97;;
23228;SDS011;11783;50.350;6.576;2023-03-03T21:05:19;106.07;;;38.65;;
23228;SDS011;11783;50.350;6.576;2023-03-03T21:07:58;106.68;;;40.35;;
23228;SDS011;11783;50.350;6.576;2023-03-03T21:10:30;110.30;;;40.72;;
23228;SDS011;11783;50.350;6.576;2023-03-03T21:13:16;105.95;;;40.75;;
23228;SDS011;11783;50.350;6.576;2023-03-03T21:18:32;104.03;;;40.53;;
23228;SDS011;11783;50.350;6.576;2023-03-03T21:20:57;105.90;;;40.00;;
23228;SDS011;11783;50.350;6.576;2023-03-03T21:23:23;108.45;;;42.85;;
23228;SDS011;11783;50.350;6.576;2023-03-03T21:25:49;111.00;;;41.42;;
23228;SDS011;11783;50.350;6.576;2023-03-03T21:28:27;100.28;;;39.28;;
23228;SDS011;11783;50.350;6.576;2023-03-03T21:33:53;99.10;;;39.05;;
23228;SDS011;11783;50.350;6.576;2023-03-03T21:36:21;101.18;;;37.80;;
23228;SDS011;11783;50.350;6.576;2023-03-03T21:38:49;98.40;;;39.05;;
23228;SDS011;11783;50.350;6.576;2023-03-03T21:41:17;90.13;;;36.15;;
23228;SDS011;11783;50.350;6.576;2023-03-03T21:43:48;95.00;;;37.08;;
23228;SDS011;11783;50.350;6.576;2023-03-03T21:46:19;89.80;;;34.85;;
23228;SDS011;11783;50.350;6.576;2023-03-03T21:48:47;61.35;;;24.08;;
23228;SDS011;11783;50.350;6.576;2023-03-03T21:51:12;95.53;;;34.63;;
23228;SDS011;11783;50.350;6.576;2023-03-03T21:53:39;93.03;;;33.88;;
23228;SDS011;11783;50.350;6.576;2023-03-03T21:56:06;92.00;;;34.05;;
23228;SDS011;11783;50.350;6.576;2023-03-03T21:58:32;90.78;;;34.78;;
23228;SDS011;11783;50.350;6.576;2023-03-03T22:00:57;87.00;;;32.90;;
23228;SDS011;11783;50.350;6.576;2023-03-03T22:03:23;83.88;;;32.53;;
23228;SDS011;11783;50.350;6.576;2023-03-03T22:05:48;81.68;;;31.70;;
23228;SDS011;11783;50.350;6.576;2023-03-03T22:08:14;74.55;;;31.33;;
23228;SDS011;11783;50.350;6.576;2023-03-03T22:10:46;76.57;;;28.83;;
23228;SDS011;11783;50.350;6.576;2023-03-03T22:13:16;72.65;;;28.30;;
23228;SDS011;11783;50.350;6.576;2023-03-03T22:15:44;74.82;;;29.30;;
23228;SDS011;11783;50.350;6.576;2023-03-03T22:18:10;72.53;;;27.48;;
23228;SDS011;11783;50.350;6.576;2023-03-03T22:20:35;66.47;;;26.83;;
23228;SDS011;11783;50.350;6.576;2023-03-03T22:23:00;66.47;;;27.25;;
23228;SDS011;11783;50.350;6.576;2023-03-03T22:25:26;68.13;;;27.33;;
23228;SDS011;11783;50.350;6.576;2023-03-03T22:27:51;68.00;;;26.50;;
23228;SDS011;11783;50.350;6.576;2023-03-03T22:30:16;67.95;;;27.10;;
23228;SDS011;11783;50.350;6.576;2023-03-03T22:32:42;79.97;;;29.55;;
23228;SDS011;11783;50.350;6.576;2023-03-03T22:35:07;68.95;;;27.85;;
23228;SDS011;11783;50.350;6.576;2023-03-03T22:37:33;72.93;;;27.73;;
23228;SDS011;11783;50.350;6.576;2023-03-03T22:39:59;71.40;;;28.70;;
23228;SDS011;11783;50.350;6.576;2023-03-03T22:42:25;71.80;;;27.80;;